Address 0x536d27743abe0cf30f1453ebf93ca90f1ba696ad 20

Txn Hash Method
Block
From
To
Value [Txn Fee]
0x66b28d844d7e82d489a1612a70581efe3f508edab7b720ecca660a44fd86c815Harvest139271272022-09-25 11:16:311 day 21 hrs ago0x536d27743abe0cf30f1453ebf93ca90f1ba696adOUT0x951accccfdf619d3cd8cfe0e4823d8e80354eb410 AVAX0.006582963851 80.355502746
0x59d529d3be12b1d02b5b25ff72a50ea065b4def9d88a1481724d2086f9ced9d70xab07211e139271172022-09-25 11:16:101 day 21 hrs ago0x536d27743abe0cf30f1453ebf93ca90f1ba696adOUT0x2e1d0c56c6913fd6135f887080f7a14123a142a80 AVAX0.018290707069 79.341637653
0x783db55a162fe386e1c68d24085409e4c1ef47d6996a599f80d085b3cba11c880x4ea4c6b3139270922022-09-25 11:15:201 day 21 hrs ago0x536d27743abe0cf30f1453ebf93ca90f1ba696adOUT0x2e1d0c56c6913fd6135f887080f7a14123a142a80 AVAX0.019559366552 78.04983441
0xed6ef4c7d0a9c05bd63994dbaecb4c7f6d2f5b6a97adf78f33493fafbf73f2be0xbef1e500139270212022-09-25 11:12:581 day 21 hrs ago0x536d27743abe0cf30f1453ebf93ca90f1ba696adOUT0x2e1d0c56c6913fd6135f887080f7a14123a142a80 AVAX0.023011883553 80.930869922
0xb6cc837f67e8fe70a0b6a97bf0b4df8c623da4632b6366eb0fdf0215aac83b860xbef1e500139270032022-09-25 11:12:211 day 21 hrs ago0x536d27743abe0cf30f1453ebf93ca90f1ba696adOUT0x2e1d0c56c6913fd6135f887080f7a14123a142a80 AVAX0.022566380399 79.364072586
0x0171419e42637803f8f85fe6da67d0791afa361879eb25a17aa10af1220ffe840x6549920d139268852022-09-25 11:08:261 day 21 hrs ago0x536d27743abe0cf30f1453ebf93ca90f1ba696adOUT0x2e1d0c56c6913fd6135f887080f7a14123a142a80 AVAX0.057094377388 84.894410377
0xd26a1ffc40c71204e9648c188ffc86b77ab8e719f56bbbffe9c7e11cb896e6e8Harvest139209442022-09-25 7:48:472 days 46 mins ago0x536d27743abe0cf30f1453ebf93ca90f1ba696adOUT0x951accccfdf619d3cd8cfe0e4823d8e80354eb410 AVAX0.0022528825 27.5
0xded75fa5b4cebb1df638f065b5cc634499f6ed80aedd9323fce4b9df2eb3882b0xab07211e139209342022-09-25 7:48:272 days 47 mins ago0x536d27743abe0cf30f1453ebf93ca90f1ba696adOUT0x2e1d0c56c6913fd6135f887080f7a14123a142a80 AVAX0.0062124425 27.5
0x07719c92c7f95d54d10c44164369a1364edcde59042443f076de1a32125e62c70x4ea4c6b3139209192022-09-25 7:47:572 days 47 mins ago0x536d27743abe0cf30f1453ebf93ca90f1ba696adOUT0x2e1d0c56c6913fd6135f887080f7a14123a142a80 AVAX0.0061870325 27.5
0x4bb731c3374045a1a12d817dad61b0a9a5937c30efb6aeb3432bc3a305ed1b8bHarvest139208992022-09-25 7:47:172 days 48 mins ago0x536d27743abe0cf30f1453ebf93ca90f1ba696adOUT0x951accccfdf619d3cd8cfe0e4823d8e80354eb410 AVAX0.0022528825 27.5
0xf4ab7eeafacad2382af457a02b2d00414352542305e30cd04a8e944d269fd21b0xab07211e139208862022-09-25 7:46:512 days 48 mins ago0x536d27743abe0cf30f1453ebf93ca90f1ba696adOUT0x2e1d0c56c6913fd6135f887080f7a14123a142a80 AVAX0.0062124425 27.5
0x34a31b6efbed576cc22a9c4fd95eaa0e77a2831a30d9939268b3db6bd413cc370x4ea4c6b3139208662022-09-25 7:46:112 days 49 mins ago0x536d27743abe0cf30f1453ebf93ca90f1ba696adOUT0x2e1d0c56c6913fd6135f887080f7a14123a142a80 AVAX0.0061870325 27.5
0xbf585726efcc42e3633a59f5b9cdd2bdf0034de5bd66a22b3cb0db8b3770e22cHarvest139208492022-09-25 7:45:372 days 49 mins ago0x536d27743abe0cf30f1453ebf93ca90f1ba696adOUT0x951accccfdf619d3cd8cfe0e4823d8e80354eb410 AVAX0.0022528825 27.5
0x2a4252e97efe182a5f1c8fa23c616c82eadefebf4e6a359a33977df2207e77f70xab07211e139208312022-09-25 7:45:012 days 50 mins ago0x536d27743abe0cf30f1453ebf93ca90f1ba696adOUT0x2e1d0c56c6913fd6135f887080f7a14123a142a80 AVAX0.0062124425 27.5
0x4f193fdbc187b67ab3666549021805566af1e3bb7b5948257867951335a537860x4ea4c6b3139208132022-09-25 7:44:252 days 51 mins ago0x536d27743abe0cf30f1453ebf93ca90f1ba696adOUT0x2e1d0c56c6913fd6135f887080f7a14123a142a80 AVAX0.0061870325 27.5
0x11f7d299e9ce71d595b63507fc4eef540061a1bb0a43eb7a7a740fc8d8553286Harvest139207922022-09-25 7:43:432 days 51 mins ago0x536d27743abe0cf30f1453ebf93ca90f1ba696adOUT0x951accccfdf619d3cd8cfe0e4823d8e80354eb410 AVAX0.0022528825 27.5
0x9a90b964e6b963257166ea5067622acd5adb4b128ec32cd32ed1e6818ab6386f0xab07211e139207802022-09-25 7:43:192 days 52 mins ago0x536d27743abe0cf30f1453ebf93ca90f1ba696adOUT0x2e1d0c56c6913fd6135f887080f7a14123a142a80 AVAX0.0062787725 27.5
0xa7563cd1b6f5b5ced5922339fe777d00abbdd1570a31dce920f1ed049c324bcd0x4ea4c6b3139207572022-09-25 7:42:332 days 52 mins ago0x536d27743abe0cf30f1453ebf93ca90f1ba696adOUT0x2e1d0c56c6913fd6135f887080f7a14123a142a80 AVAX0.00625328 27.5
0xa89e5c2b3946209296b924d09d2ac302cf2bf306450c6929a2658259d382384d0x6549920d139207252022-09-25 7:41:292 days 54 mins ago0x536d27743abe0cf30f1453ebf93ca90f1ba696adOUT0x2e1d0c56c6913fd6135f887080f7a14123a142a80 AVAX0.017553855 27.5
0x1fbd4ed4acfb9220af2f51e5f975644906bbdd166f56a8119eb9d7692325b82b0x6549920d139207122022-09-25 7:41:022 days 54 mins ago0x536d27743abe0cf30f1453ebf93ca90f1ba696adOUT0x2e1d0c56c6913fd6135f887080f7a14123a142a80 AVAX0.017553855 27.5
0x922048a6113c1edd98bc81c95550e6f01c4e98cac59b7d9ec2548ea6768f5f160x6549920d139206972022-09-25 7:40:322 days 54 mins ago0x536d27743abe0cf30f1453ebf93ca90f1ba696adOUT0x2e1d0c56c6913fd6135f887080f7a14123a142a80 AVAX0.017553855 27.5
0x79e909413df8ad675251acbb403079c39bc775c40b025bd4ed9ef870e9cc08ed0x6549920d139206372022-09-25 7:38:322 days 56 mins ago0x536d27743abe0cf30f1453ebf93ca90f1ba696adOUT0x2e1d0c56c6913fd6135f887080f7a14123a142a80 AVAX0.017554185 27.5
0xe5afada6ca81f1ab0a538aff720094cd8733b0983fe925abbaa329a62d840876Provide Liquidit...139206042022-09-25 7:37:272 days 58 mins ago0x536d27743abe0cf30f1453ebf93ca90f1ba696adOUT0x2e1d0c56c6913fd6135f887080f7a14123a142a80 AVAX0.002378035 27.5
0xe5ae8ad0cbbad912ad7edf02ce91a9c1fa80518169b280ef8fe9db17131c9a3fClaim Reward139205392022-09-25 7:35:162 days 1 hr ago0x536d27743abe0cf30f1453ebf93ca90f1ba696adOUT0x41102fb90121896e52868c0882dcbc74f9ca76060 AVAX0.0024490125 27.5
0x906e4bbe1951f4b1c1d1f615f58c2d0dda08143c86f6f679c129b78e4ba34e65Claim Reward139188502022-09-25 6:38:552 days 1 hr ago0x536d27743abe0cf30f1453ebf93ca90f1ba696adOUT0x41102fb90121896e52868c0882dcbc74f9ca76060 AVAX0.0024490125 27.5
[ Download CSV Export 
Parent Txn Hash Block From To Value
Loading

Contract Name:
0

Compiler Version
0

Optimization Enabled:
0

Other Settings:
-NA-
Block Transaction Gas Used Reward
Age Block Fee Address BC Fee Address Voting Power Jailed Incoming
Block Uncle Number Difficulty Gas Used Reward
Loading